sensor_id;sensor_type;location;lat;lon;timestamp;P1;durP1;ratioP1;P2;durP2;ratioP2
28170;SDS011;15458;53.346;-1.688;2022-08-01T00:01:26;7.95;;;1.52;;
28170;SDS011;15458;53.346;-1.688;2022-08-01T00:03:51;7.22;;;1.60;;
28170;SDS011;15458;53.346;-1.688;2022-08-01T00:06:17;8.73;;;1.65;;
28170;SDS011;15458;53.346;-1.688;2022-08-01T00:08:43;6.30;;;1.40;;
28170;SDS011;15458;53.346;-1.688;2022-08-01T00:11:09;7.03;;;1.67;;
28170;SDS011;15458;53.346;-1.688;2022-08-01T00:13:35;6.97;;;1.60;;
28170;SDS011;15458;53.346;-1.688;2022-08-01T00:16:00;7.80;;;1.58;;
28170;SDS011;15458;53.346;-1.688;2022-08-01T00:18:26;4.45;;;1.42;;
28170;SDS011;15458;53.346;-1.688;2022-08-01T00:20:52;11.48;;;1.67;;
28170;SDS011;15458;53.346;-1.688;2022-08-01T00:23:18;5.70;;;1.63;;
28170;SDS011;15458;53.346;-1.688;2022-08-01T00:25:43;6.95;;;1.67;;
28170;SDS011;15458;53.346;-1.688;2022-08-01T00:28:09;4.72;;;1.50;;
28170;SDS011;15458;53.346;-1.688;2022-08-01T00:30:35;5.03;;;1.50;;
28170;SDS011;15458;53.346;-1.688;2022-08-01T00:33:01;8.15;;;1.63;;
28170;SDS011;15458;53.346;-1.688;2022-08-01T00:35:27;5.13;;;1.67;;
28170;SDS011;15458;53.346;-1.688;2022-08-01T00:37:53;4.90;;;1.50;;
28170;SDS011;15458;53.346;-1.688;2022-08-01T00:40:19;8.95;;;1.98;;
28170;SDS011;15458;53.346;-1.688;2022-08-01T00:42:44;9.65;;;2.47;;
28170;SDS011;15458;53.346;-1.688;2022-08-01T00:45:11;9.80;;;1.80;;
28170;SDS011;15458;53.346;-1.688;2022-08-01T00:47:37;4.88;;;1.88;;
28170;SDS011;15458;53.346;-1.688;2022-08-01T00:50:03;9.55;;;1.80;;
28170;SDS011;15458;53.346;-1.688;2022-08-01T00:52:29;10.85;;;1.92;;
28170;SDS011;15458;53.346;-1.688;2022-08-01T00:54:55;5.15;;;1.60;;
28170;SDS011;15458;53.346;-1.688;2022-08-01T00:57:21;4.22;;;1.70;;
28170;SDS011;15458;53.346;-1.688;2022-08-01T00:59:47;7.90;;;1.80;;
28170;SDS011;15458;53.346;-1.688;2022-08-01T01:02:13;9.30;;;1.65;;
28170;SDS011;15458;53.346;-1.688;2022-08-01T01:04:38;8.55;;;1.50;;
28170;SDS011;15458;53.346;-1.688;2022-08-01T01:12:35;9.93;;;1.80;;
28170;SDS011;15458;53.346;-1.688;2022-08-01T01:17:41;7.75;;;1.50;;
28170;SDS011;15458;53.346;-1.688;2022-08-01T01:20:11;8.75;;;1.80;;
28170;SDS011;15458;53.346;-1.688;2022-08-01T01:22:46;4.72;;;1.67;;
28170;SDS011;15458;53.346;-1.688;2022-08-01T01:28:00;8.63;;;1.67;;
28170;SDS011;15458;53.346;-1.688;2022-08-01T01:30:33;4.57;;;1.67;;
28170;SDS011;15458;53.346;-1.688;2022-08-01T01:33:01;5.25;;;1.88;;
28170;SDS011;15458;53.346;-1.688;2022-08-01T01:35:34;6.53;;;1.65;;
28170;SDS011;15458;53.346;-1.688;2022-08-01T01:38:05;7.18;;;1.60;;
28170;SDS011;15458;53.346;-1.688;2022-08-01T01:40:36;6.53;;;1.77;;
28170;SDS011;15458;53.346;-1.688;2022-08-01T01:43:03;6.15;;;1.55;;
28170;SDS011;15458;53.346;-1.688;2022-08-01T01:45:32;9.88;;;1.73;;
28170;SDS011;15458;53.346;-1.688;2022-08-01T01:47:58;5.72;;;2.10;;
28170;SDS011;15458;53.346;-1.688;2022-08-01T01:50:26;6.63;;;1.75;;
28170;SDS011;15458;53.346;-1.688;2022-08-01T01:52:52;6.03;;;1.55;;
28170;SDS011;15458;53.346;-1.688;2022-08-01T01:55:19;4.75;;;1.40;;
28170;SDS011;15458;53.346;-1.688;2022-08-01T01:57:48;3.63;;;1.58;;
28170;SDS011;15458;53.346;-1.688;2022-08-01T02:00:16;4.30;;;1.58;;
28170;SDS011;15458;53.346;-1.688;2022-08-01T02:02:43;5.75;;;1.95;;
28170;SDS011;15458;53.346;-1.688;2022-08-01T02:05:11;4.45;;;1.67;;
28170;SDS011;15458;53.346;-1.688;2022-08-01T02:07:38;4.70;;;1.50;;
28170;SDS011;15458;53.346;-1.688;2022-08-01T02:10:05;7.47;;;2.60;;
28170;SDS011;15458;53.346;-1.688;2022-08-01T02:12:35;5.95;;;1.40;;
28170;SDS011;15458;53.346;-1.688;2022-08-01T02:15:03;6.40;;;1.85;;
28170;SDS011;15458;53.346;-1.688;2022-08-01T02:17:31;3.08;;;1.52;;
28170;SDS011;15458;53.346;-1.688;2022-08-01T02:19:57;8.25;;;1.90;;
28170;SDS011;15458;53.346;-1.688;2022-08-01T02:22:27;9.63;;;2.30;;
28170;SDS011;15458;53.346;-1.688;2022-08-01T02:30:16;5.78;;;1.98;;
28170;SDS011;15458;53.346;-1.688;2022-08-01T02:32:49;3.58;;;1.40;;
28170;SDS011;15458;53.346;-1.688;2022-08-01T02:35:29;3.65;;;1.52;;
28170;SDS011;15458;53.346;-1.688;2022-08-01T02:37:58;5.97;;;1.50;;
28170;SDS011;15458;53.346;-1.688;2022-08-01T02:40:27;7.43;;;1.90;;
28170;SDS011;15458;53.346;-1.688;2022-08-01T02:42:54;4.65;;;1.40;;
28170;SDS011;15458;53.346;-1.688;2022-08-01T02:45:22;6.78;;;1.83;;
28170;SDS011;15458;53.346;-1.688;2022-08-01T02:47:50;5.80;;;1.60;;
28170;SDS011;15458;53.346;-1.688;2022-08-01T02:50:19;5.10;;;1.55;;
28170;SDS011;15458;53.346;-1.688;2022-08-01T02:52:46;2.75;;;1.40;;
28170;SDS011;15458;53.346;-1.688;2022-08-01T02:55:14;6.22;;;1.70;;
28170;SDS011;15458;53.346;-1.688;2022-08-01T02:57:41;3.83;;;1.77;;
28170;SDS011;15458;53.346;-1.688;2022-08-01T03:00:08;5.22;;;1.75;;
28170;SDS011;15458;53.346;-1.688;2022-08-01T03:02:35;6.97;;;2.42;;
28170;SDS011;15458;53.346;-1.688;2022-08-01T03:05:02;8.10;;;1.40;;
28170;SDS011;15458;53.346;-1.688;2022-08-01T03:07:28;6.72;;;1.70;;
28170;SDS011;15458;53.346;-1.688;2022-08-01T03:09:55;6.85;;;2.05;;
28170;SDS011;15458;53.346;-1.688;2022-08-01T03:12:24;3.38;;;1.80;;
28170;SDS011;15458;53.346;-1.688;2022-08-01T03:14:53;4.10;;;1.60;;
28170;SDS011;15458;53.346;-1.688;2022-08-01T03:17:22;2.42;;;1.55;;
28170;SDS011;15458;53.346;-1.688;2022-08-01T03:19:50;10.23;;;1.75;;
28170;SDS011;15458;53.346;-1.688;2022-08-01T03:22:17;6.80;;;1.60;;
28170;SDS011;15458;53.346;-1.688;2022-08-01T03:24:46;3.00;;;1.40;;
28170;SDS011;15458;53.346;-1.688;2022-08-01T03:27:16;10.02;;;1.98;;
28170;SDS011;15458;53.346;-1.688;2022-08-01T03:29:49;4.72;;;1.58;;
28170;SDS011;15458;53.346;-1.688;2022-08-01T03:32:16;2.72;;;1.90;;
28170;SDS011;15458;53.346;-1.688;2022-08-01T03:34:44;4.63;;;1.80;;
28170;SDS011;15458;53.346;-1.688;2022-08-01T03:37:12;8.63;;;1.83;;
28170;SDS011;15458;53.346;-1.688;2022-08-01T03:39:47;4.47;;;1.50;;
28170;SDS011;15458;53.346;-1.688;2022-08-01T03:42:20;5.00;;;1.67;;
28170;SDS011;15458;53.346;-1.688;2022-08-01T03:44:53;7.15;;;2.03;;
28170;SDS011;15458;53.346;-1.688;2022-08-01T03:47:24;6.25;;;1.50;;
28170;SDS011;15458;53.346;-1.688;2022-08-01T03:49:54;7.93;;;1.88;;
28170;SDS011;15458;53.346;-1.688;2022-08-01T03:52:22;4.60;;;1.90;;
28170;SDS011;15458;53.346;-1.688;2022-08-01T03:54:50;8.43;;;2.08;;
28170;SDS011;15458;53.346;-1.688;2022-08-01T03:57:18;3.58;;;1.52;;
28170;SDS011;15458;53.346;-1.688;2022-08-01T03:59:44;7.03;;;2.08;;
28170;SDS011;15458;53.346;-1.688;2022-08-01T04:02:11;5.25;;;1.92;;
28170;SDS011;15458;53.346;-1.688;2022-08-01T04:04:39;3.97;;;1.60;;
28170;SDS011;15458;53.346;-1.688;2022-08-01T04:07:20;4.30;;;1.60;;
28170;SDS011;15458;53.346;-1.688;2022-08-01T04:09:46;5.13;;;1.60;;
28170;SDS011;15458;53.346;-1.688;2022-08-01T04:12:12;3.55;;;1.80;;
28170;SDS011;15458;53.346;-1.688;2022-08-01T04:14:38;6.55;;;1.73;;
28170;SDS011;15458;53.346;-1.688;2022-08-01T04:17:04;6.85;;;1.63;;
28170;SDS011;15458;53.346;-1.688;2022-08-01T04:19:29;5.95;;;1.83;;
28170;SDS011;15458;53.346;-1.688;2022-08-01T04:21:55;5.82;;;2.10;;
28170;SDS011;15458;53.346;-1.688;2022-08-01T04:24:21;10.27;;;1.95;;
28170;SDS011;15458;53.346;-1.688;2022-08-01T04:26:48;6.25;;;1.92;;
28170;SDS011;15458;53.346;-1.688;2022-08-01T04:29:17;6.25;;;1.98;;
28170;SDS011;15458;53.346;-1.688;2022-08-01T04:31:46;6.28;;;1.80;;
28170;SDS011;15458;53.346;-1.688;2022-08-01T04:34:16;3.03;;;1.48;;
28170;SDS011;15458;53.346;-1.688;2022-08-01T04:36:44;5.13;;;1.60;;
28170;SDS011;15458;53.346;-1.688;2022-08-01T04:39:11;5.03;;;1.85;;
28170;SDS011;15458;53.346;-1.688;2022-08-01T04:41:38;3.50;;;1.60;;
28170;SDS011;15458;53.346;-1.688;2022-08-01T04:44:05;8.25;;;1.70;;
28170;SDS011;15458;53.346;-1.688;2022-08-01T04:46:31;7.68;;;1.80;;
28170;SDS011;15458;53.346;-1.688;2022-08-01T04:48:59;9.32;;;2.20;;
28170;SDS011;15458;53.346;-1.688;2022-08-01T04:51:26;9.30;;;2.30;;
28170;SDS011;15458;53.346;-1.688;2022-08-01T04:53:52;5.88;;;1.90;;
28170;SDS011;15458;53.346;-1.688;2022-08-01T04:56:18;4.32;;;2.20;;
28170;SDS011;15458;53.346;-1.688;2022-08-01T04:58:45;2.13;;;1.60;;
28170;SDS011;15458;53.346;-1.688;2022-08-01T05:01:11;3.25;;;2.17;;
28170;SDS011;15458;53.346;-1.688;2022-08-01T05:03:37;7.07;;;1.80;;
28170;SDS011;15458;53.346;-1.688;2022-08-01T05:06:03;7.22;;;2.28;;
28170;SDS011;15458;53.346;-1.688;2022-08-01T05:08:29;3.72;;;2.00;;
28170;SDS011;15458;53.346;-1.688;2022-08-01T05:10:55;5.95;;;2.03;;
28170;SDS011;15458;53.346;-1.688;2022-08-01T05:13:21;4.82;;;2.53;;
28170;SDS011;15458;53.346;-1.688;2022-08-01T05:15:46;13.80;;;2.30;;
28170;SDS011;15458;53.346;-1.688;2022-08-01T05:18:12;6.90;;;1.80;;
28170;SDS011;15458;53.346;-1.688;2022-08-01T05:20:38;3.75;;;1.58;;
28170;SDS011;15458;53.346;-1.688;2022-08-01T05:23:04;8.15;;;1.90;;
28170;SDS011;15458;53.346;-1.688;2022-08-01T05:25:30;3.50;;;1.77;;
28170;SDS011;15458;53.346;-1.688;2022-08-01T05:27:56;6.68;;;2.63;;
28170;SDS011;15458;53.346;-1.688;2022-08-01T05:30:21;6.95;;;2.63;;
28170;SDS011;15458;53.346;-1.688;2022-08-01T05:32:47;5.50;;;2.53;;
28170;SDS011;15458;53.346;-1.688;2022-08-01T05:35:13;5.65;;;2.72;;
28170;SDS011;15458;53.346;-1.688;2022-08-01T05:37:38;8.68;;;2.78;;
28170;SDS011;15458;53.346;-1.688;2022-08-01T05:40:05;7.07;;;2.25;;
28170;SDS011;15458;53.346;-1.688;2022-08-01T05:42:31;3.25;;;2.03;;
28170;SDS011;15458;53.346;-1.688;2022-08-01T05:44:57;6.53;;;1.88;;
28170;SDS011;15458;53.346;-1.688;2022-08-01T05:47:22;7.70;;;2.63;;
28170;SDS011;15458;53.346;-1.688;2022-08-01T05:49:48;9.45;;;2.47;;
28170;SDS011;15458;53.346;-1.688;2022-08-01T05:52:14;5.53;;;2.35;;
28170;SDS011;15458;53.346;-1.688;2022-08-01T05:54:40;4.70;;;2.30;;
28170;SDS011;15458;53.346;-1.688;2022-08-01T05:57:05;19.60;;;4.50;;
28170;SDS011;15458;53.346;-1.688;2022-08-01T05:59:31;6.78;;;2.30;;
28170;SDS011;15458;53.346;-1.688;2022-08-01T06:01:57;5.45;;;2.50;;
28170;SDS011;15458;53.346;-1.688;2022-08-01T06:04:23;3.38;;;2.10;;
28170;SDS011;15458;53.346;-1.688;2022-08-01T06:06:48;7.72;;;2.28;;
28170;SDS011;15458;53.346;-1.688;2022-08-01T06:09:14;4.38;;;1.77;;
28170;SDS011;15458;53.346;-1.688;2022-08-01T06:11:40;8.73;;;2.90;;
28170;SDS011;15458;53.346;-1.688;2022-08-01T06:14:06;2.92;;;2.05;;
28170;SDS011;15458;53.346;-1.688;2022-08-01T06:16:31;7.90;;;2.30;;
28170;SDS011;15458;53.346;-1.688;2022-08-01T06:18:57;4.63;;;2.30;;
28170;SDS011;15458;53.346;-1.688;2022-08-01T06:21:23;7.03;;;2.33;;
28170;SDS011;15458;53.346;-1.688;2022-08-01T06:23:49;4.88;;;2.20;;
28170;SDS011;15458;53.346;-1.688;2022-08-01T06:26:17;7.97;;;2.28;;
28170;SDS011;15458;53.346;-1.688;2022-08-01T06:28:43;7.32;;;2.40;;
28170;SDS011;15458;53.346;-1.688;2022-08-01T06:31:09;5.95;;;2.60;;
28170;SDS011;15458;53.346;-1.688;2022-08-01T06:33:36;10.65;;;2.60;;
28170;SDS011;15458;53.346;-1.688;2022-08-01T06:36:02;7.00;;;2.25;;
28170;SDS011;15458;53.346;-1.688;2022-08-01T06:38:28;10.18;;;2.50;;
28170;SDS011;15458;53.346;-1.688;2022-08-01T06:40:54;5.65;;;2.03;;
28170;SDS011;15458;53.346;-1.688;2022-08-01T06:43:19;7.43;;;2.50;;
28170;SDS011;15458;53.346;-1.688;2022-08-01T06:45:46;8.00;;;2.20;;
28170;SDS011;15458;53.346;-1.688;2022-08-01T06:48:11;12.18;;;2.95;;
28170;SDS011;15458;53.346;-1.688;2022-08-01T06:50:37;9.93;;;2.65;;
28170;SDS011;15458;53.346;-1.688;2022-08-01T06:53:03;6.80;;;2.35;;
28170;SDS011;15458;53.346;-1.688;2022-08-01T06:55:29;6.13;;;2.88;;
28170;SDS011;15458;53.346;-1.688;2022-08-01T06:57:55;8.32;;;2.63;;
28170;SDS011;15458;53.346;-1.688;2022-08-01T07:00:22;6.38;;;2.75;;
28170;SDS011;15458;53.346;-1.688;2022-08-01T07:02:50;8.90;;;2.83;;
28170;SDS011;15458;53.346;-1.688;2022-08-01T07:05:16;10.77;;;2.80;;
28170;SDS011;15458;53.346;-1.688;2022-08-01T07:07:42;13.00;;;3.65;;
28170;SDS011;15458;53.346;-1.688;2022-08-01T07:10:08;5.75;;;2.67;;
28170;SDS011;15458;53.346;-1.688;2022-08-01T07:12:35;9.88;;;2.50;;
28170;SDS011;15458;53.346;-1.688;2022-08-01T07:15:06;6.57;;;3.25;;
28170;SDS011;15458;53.346;-1.688;2022-08-01T07:17:36;13.27;;;2.80;;
28170;SDS011;15458;53.346;-1.688;2022-08-01T07:20:07;8.63;;;2.10;;
28170;SDS011;15458;53.346;-1.688;2022-08-01T07:22:34;10.52;;;2.40;;
28170;SDS011;15458;53.346;-1.688;2022-08-01T07:25:01;7.57;;;2.72;;
28170;SDS011;15458;53.346;-1.688;2022-08-01T07:27:27;8.57;;;1.95;;
28170;SDS011;15458;53.346;-1.688;2022-08-01T07:29:53;11.02;;;2.53;;
28170;SDS011;15458;53.346;-1.688;2022-08-01T07:32:19;8.65;;;1.95;;
28170;SDS011;15458;53.346;-1.688;2022-08-01T07:34:44;8.32;;;2.17;;
28170;SDS011;15458;53.346;-1.688;2022-08-01T07:37:10;5.78;;;1.52;;
28170;SDS011;15458;53.346;-1.688;2022-08-01T07:39:36;7.60;;;2.20;;
28170;SDS011;15458;53.346;-1.688;2022-08-01T07:42:02;6.25;;;1.70;;
28170;SDS011;15458;53.346;-1.688;2022-08-01T07:44:27;7.70;;;1.70;;
28170;SDS011;15458;53.346;-1.688;2022-08-01T07:46:53;6.20;;;1.65;;
28170;SDS011;15458;53.346;-1.688;2022-08-01T07:49:19;10.60;;;1.45;;
28170;SDS011;15458;53.346;-1.688;2022-08-01T07:51:48;6.55;;;2.22;;
28170;SDS011;15458;53.346;-1.688;2022-08-01T07:56:48;5.40;;;1.67;;
28170;SDS011;15458;53.346;-1.688;2022-08-01T07:59:24;6.60;;;1.40;;
28170;SDS011;15458;53.346;-1.688;2022-08-01T08:01:54;9.50;;;1.88;;
28170;SDS011;15458;53.346;-1.688;2022-08-01T08:04:23;5.80;;;1.40;;
28170;SDS011;15458;53.346;-1.688;2022-08-01T08:07:02;6.53;;;1.23;;
28170;SDS011;15458;53.346;-1.688;2022-08-01T08:09:36;5.65;;;1.27;;
28170;SDS011;15458;53.346;-1.688;2022-08-01T08:12:23;13.13;;;1.90;;
28170;SDS011;15458;53.346;-1.688;2022-08-01T08:14:51;11.43;;;1.90;;
28170;SDS011;15458;53.346;-1.688;2022-08-01T08:17:21;6.50;;;1.33;;
28170;SDS011;15458;53.346;-1.688;2022-08-01T08:20:19;8.52;;;1.80;;
28170;SDS011;15458;53.346;-1.688;2022-08-01T08:22:54;3.00;;;1.13;;
28170;SDS011;15458;53.346;-1.688;2022-08-01T08:26:05;7.80;;;1.40;;
28170;SDS011;15458;53.346;-1.688;2022-08-01T08:29:29;5.05;;;1.30;;
28170;SDS011;15458;53.346;-1.688;2022-08-01T08:31:58;6.55;;;1.25;;
28170;SDS011;15458;53.346;-1.688;2022-08-01T08:34:27;6.35;;;1.55;;
28170;SDS011;15458;53.346;-1.688;2022-08-01T08:37:03;8.88;;;1.33;;
28170;SDS011;15458;53.346;-1.688;2022-08-01T08:39:36;7.70;;;1.38;;
28170;SDS011;15458;53.346;-1.688;2022-08-01T08:42:09;10.63;;;1.60;;
28170;SDS011;15458;53.346;-1.688;2022-08-01T08:44:40;7.82;;;1.90;;
28170;SDS011;15458;53.346;-1.688;2022-08-01T08:47:10;6.75;;;1.52;;
28170;SDS011;15458;53.346;-1.688;2022-08-01T08:49:45;10.10;;;2.40;;
28170;SDS011;15458;53.346;-1.688;2022-08-01T08:52:15;8.70;;;2.22;;
28170;SDS011;15458;53.346;-1.688;2022-08-01T08:54:49;10.93;;;3.03;;
28170;SDS011;15458;53.346;-1.688;2022-08-01T08:57:20;15.85;;;7.70;;
28170;SDS011;15458;53.346;-1.688;2022-08-01T08:59:54;15.77;;;5.45;;
28170;SDS011;15458;53.346;-1.688;2022-08-01T09:02:22;15.55;;;6.35;;
28170;SDS011;15458;53.346;-1.688;2022-08-01T09:04:51;14.15;;;5.03;;
28170;SDS011;15458;53.346;-1.688;2022-08-01T09:07:23;8.88;;;2.50;;
28170;SDS011;15458;53.346;-1.688;2022-08-01T09:09:54;8.18;;;1.75;;
28170;SDS011;15458;53.346;-1.688;2022-08-01T09:12:23;7.20;;;1.98;;
28170;SDS011;15458;53.346;-1.688;2022-08-01T09:14:49;7.75;;;1.35;;
28170;SDS011;15458;53.346;-1.688;2022-08-01T09:17:30;5.40;;;1.58;;
28170;SDS011;15458;53.346;-1.688;2022-08-01T09:20:23;8.30;;;1.40;;
28170;SDS011;15458;53.346;-1.688;2022-08-01T09:22:58;7.38;;;1.80;;
28170;SDS011;15458;53.346;-1.688;2022-08-01T09:25:51;5.32;;;1.58;;
28170;SDS011;15458;53.346;-1.688;2022-08-01T09:28:31;6.13;;;1.70;;
28170;SDS011;15458;53.346;-1.688;2022-08-01T09:31:10;8.27;;;1.42;;
28170;SDS011;15458;53.346;-1.688;2022-08-01T09:33:57;10.02;;;1.38;;
28170;SDS011;15458;53.346;-1.688;2022-08-01T09:36:54;4.78;;;1.25;;
28170;SDS011;15458;53.346;-1.688;2022-08-01T09:41:50;5.28;;;1.23;;
28170;SDS011;15458;53.346;-1.688;2022-08-01T09:44:42;3.45;;;1.08;;
28170;SDS011;15458;53.346;-1.688;2022-08-01T09:47:42;6.53;;;1.38;;
28170;SDS011;15458;53.346;-1.688;2022-08-01T09:50:26;6.38;;;1.60;;
28170;SDS011;15458;53.346;-1.688;2022-08-01T09:53:14;2.17;;;1.00;;
28170;SDS011;15458;53.346;-1.688;2022-08-01T09:56:07;7.80;;;1.95;;
28170;SDS011;15458;53.346;-1.688;2022-08-01T09:58:49;5.18;;;2.00;;
28170;SDS011;15458;53.346;-1.688;2022-08-01T10:01:24;7.68;;;2.20;;
28170;SDS011;15458;53.346;-1.688;2022-08-01T10:04:05;7.88;;;1.85;;
28170;SDS011;15458;53.346;-1.688;2022-08-01T10:06:33;4.25;;;1.00;;
28170;SDS011;15458;53.346;-1.688;2022-08-01T10:09:03;5.10;;;1.25;;
28170;SDS011;15458;53.346;-1.688;2022-08-01T10:11:30;5.75;;;1.60;;
28170;SDS011;15458;53.346;-1.688;2022-08-01T10:13:58;8.35;;;1.50;;
28170;SDS011;15458;53.346;-1.688;2022-08-01T10:16:27;3.70;;;1.17;;
28170;SDS011;15458;53.346;-1.688;2022-08-01T10:18:54;6.22;;;1.25;;
28170;SDS011;15458;53.346;-1.688;2022-08-01T10:21:24;5.15;;;0.98;;
28170;SDS011;15458;53.346;-1.688;2022-08-01T10:23:55;3.22;;;1.20;;
28170;SDS011;15458;53.346;-1.688;2022-08-01T10:26:51;6.78;;;2.10;;
28170;SDS011;15458;53.346;-1.688;2022-08-01T10:29:31;6.57;;;1.55;;
28170;SDS011;15458;53.346;-1.688;2022-08-01T10:32:07;5.07;;;1.50;;
28170;SDS011;15458;53.346;-1.688;2022-08-01T10:34:37;6.97;;;1.05;;
28170;SDS011;15458;53.346;-1.688;2022-08-01T10:37:38;7.88;;;1.85;;
28170;SDS011;15458;53.346;-1.688;2022-08-01T10:40:11;5.65;;;1.45;;
28170;SDS011;15458;53.346;-1.688;2022-08-01T10:42:40;5.65;;;1.42;;
28170;SDS011;15458;53.346;-1.688;2022-08-01T10:45:16;4.20;;;1.30;;
28170;SDS011;15458;53.346;-1.688;2022-08-01T10:53:20;7.30;;;1.55;;
28170;SDS011;15458;53.346;-1.688;2022-08-01T10:55:59;4.25;;;1.10;;
28170;SDS011;15458;53.346;-1.688;2022-08-01T10:58:28;7.22;;;1.40;;
28170;SDS011;15458;53.346;-1.688;2022-08-01T11:01:31;4.15;;;1.20;;
28170;SDS011;15458;53.346;-1.688;2022-08-01T11:06:46;4.82;;;1.38;;
28170;SDS011;15458;53.346;-1.688;2022-08-01T11:09:24;6.25;;;1.00;;
28170;SDS011;15458;53.346;-1.688;2022-08-01T11:12:16;2.22;;;0.70;;
28170;SDS011;15458;53.346;-1.688;2022-08-01T11:28:17;2.55;;;0.70;;
28170;SDS011;15458;53.346;-1.688;2022-08-01T11:33:57;3.40;;;0.88;;
28170;SDS011;15458;53.346;-1.688;2022-08-01T11:36:45;3.83;;;0.80;;
28170;SDS011;15458;53.346;-1.688;2022-08-01T11:39:27;2.08;;;1.33;;
28170;SDS011;15458;53.346;-1.688;2022-08-01T11:42:17;2.60;;;0.82;;
28170;SDS011;15458;53.346;-1.688;2022-08-01T11:45:11;1.55;;;0.70;;
28170;SDS011;15458;53.346;-1.688;2022-08-01T11:48:30;1.73;;;0.95;;
28170;SDS011;15458;53.346;-1.688;2022-08-01T11:58:05;4.93;;;1.05;;
28170;SDS011;15458;53.346;-1.688;2022-08-01T12:00:56;3.42;;;0.82;;
28170;SDS011;15458;53.346;-1.688;2022-08-01T12:03:26;3.67;;;1.10;;
28170;SDS011;15458;53.346;-1.688;2022-08-01T12:08:32;2.95;;;1.40;;
28170;SDS011;15458;53.346;-1.688;2022-08-01T12:11:07;2.03;;;0.90;;
28170;SDS011;15458;53.346;-1.688;2022-08-01T12:13:46;2.83;;;1.17;;
28170;SDS011;15458;53.346;-1.688;2022-08-01T12:16:36;2.90;;;1.20;;
28170;SDS011;15458;53.346;-1.688;2022-08-01T12:19:27;3.65;;;1.60;;
28170;SDS011;15458;53.346;-1.688;2022-08-01T12:22:14;3.20;;;1.90;;
28170;SDS011;15458;53.346;-1.688;2022-08-01T12:25:17;3.13;;;1.52;;
28170;SDS011;15458;53.346;-1.688;2022-08-01T12:27:52;4.15;;;1.10;;
28170;SDS011;15458;53.346;-1.688;2022-08-01T12:30:28;4.30;;;1.40;;
28170;SDS011;15458;53.346;-1.688;2022-08-01T12:33:09;3.70;;;1.08;;
28170;SDS011;15458;53.346;-1.688;2022-08-01T12:36:27;2.33;;;1.08;;
28170;SDS011;15458;53.346;-1.688;2022-08-01T12:39:16;4.07;;;2.00;;
28170;SDS011;15458;53.346;-1.688;2022-08-01T12:41:49;2.13;;;1.33;;
28170;SDS011;15458;53.346;-1.688;2022-08-01T12:44:32;5.90;;;1.35;;
28170;SDS011;15458;53.346;-1.688;2022-08-01T12:47:09;4.32;;;1.63;;
28170;SDS011;15458;53.346;-1.688;2022-08-01T12:49:48;4.97;;;1.80;;
28170;SDS011;15458;53.346;-1.688;2022-08-01T12:52:19;2.30;;;1.00;;
28170;SDS011;15458;53.346;-1.688;2022-08-01T12:55:02;0.93;;;0.88;;
28170;SDS011;15458;53.346;-1.688;2022-08-01T12:57:45;4.38;;;1.00;;
28170;SDS011;15458;53.346;-1.688;2022-08-01T13:00:40;1.48;;;0.75;;
28170;SDS011;15458;53.346;-1.688;2022-08-01T13:03:13;6.18;;;1.08;;
28170;SDS011;15458;53.346;-1.688;2022-08-01T13:05:52;3.60;;;1.00;;
28170;SDS011;15458;53.346;-1.688;2022-08-01T13:08:33;2.05;;;0.77;;
28170;SDS011;15458;53.346;-1.688;2022-08-01T13:11:06;8.18;;;0.82;;
28170;SDS011;15458;53.346;-1.688;2022-08-01T13:13:48;2.53;;;0.80;;
28170;SDS011;15458;53.346;-1.688;2022-08-01T13:16:22;7.63;;;1.10;;
28170;SDS011;15458;53.346;-1.688;2022-08-01T13:18:54;4.63;;;0.90;;
28170;SDS011;15458;53.346;-1.688;2022-08-01T13:21:30;3.40;;;0.82;;
28170;SDS011;15458;53.346;-1.688;2022-08-01T13:24:32;3.50;;;0.95;;
28170;SDS011;15458;53.346;-1.688;2022-08-01T13:27:04;3.65;;;1.00;;
28170;SDS011;15458;53.346;-1.688;2022-08-01T13:29:33;1.70;;;0.88;;
28170;SDS011;15458;53.346;-1.688;2022-08-01T13:35:00;2.50;;;1.30;;
28170;SDS011;15458;53.346;-1.688;2022-08-01T13:37:49;2.10;;;0.93;;
28170;SDS011;15458;53.346;-1.688;2022-08-01T13:40:22;2.88;;;1.23;;
28170;SDS011;15458;53.346;-1.688;2022-08-01T13:45:55;3.78;;;1.00;;
28170;SDS011;15458;53.346;-1.688;2022-08-01T13:48:21;1.75;;;0.82;;
28170;SDS011;15458;53.346;-1.688;2022-08-01T13:50:51;4.00;;;0.98;;
28170;SDS011;15458;53.346;-1.688;2022-08-01T13:53:30;1.88;;;1.00;;
28170;SDS011;15458;53.346;-1.688;2022-08-01T13:56:20;5.93;;;1.00;;
28170;SDS011;15458;53.346;-1.688;2022-08-01T13:58:55;1.40;;;0.85;;
28170;SDS011;15458;53.346;-1.688;2022-08-01T14:01:41;1.75;;;1.00;;
28170;SDS011;15458;53.346;-1.688;2022-08-01T14:04:11;3.60;;;1.23;;
28170;SDS011;15458;53.346;-1.688;2022-08-01T14:06:39;4.75;;;1.05;;
28170;SDS011;15458;53.346;-1.688;2022-08-01T14:09:10;2.55;;;1.10;;
28170;SDS011;15458;53.346;-1.688;2022-08-01T14:11:38;4.13;;;1.10;;
28170;SDS011;15458;53.346;-1.688;2022-08-01T14:14:14;5.95;;;1.25;;
28170;SDS011;15458;53.346;-1.688;2022-08-01T14:16:43;2.90;;;1.60;;
28170;SDS011;15458;53.346;-1.688;2022-08-01T14:19:15;2.88;;;1.20;;
28170;SDS011;15458;53.346;-1.688;2022-08-01T14:21:47;1.50;;;0.98;;
28170;SDS011;15458;53.346;-1.688;2022-08-01T14:24:25;4.55;;;0.90;;
28170;SDS011;15458;53.346;-1.688;2022-08-01T14:26:59;1.88;;;0.85;;
28170;SDS011;15458;53.346;-1.688;2022-08-01T14:29:32;2.63;;;0.85;;
28170;SDS011;15458;53.346;-1.688;2022-08-01T14:32:21;1.73;;;1.30;;
28170;SDS011;15458;53.346;-1.688;2022-08-01T15:26:08;2.47;;;1.10;;
28170;SDS011;15458;53.346;-1.688;2022-08-01T15:28:38;1.58;;;0.95;;
28170;SDS011;15458;53.346;-1.688;2022-08-01T15:31:06;1.88;;;1.00;;
28170;SDS011;15458;53.346;-1.688;2022-08-01T15:33:35;2.17;;;0.80;;
28170;SDS011;15458;53.346;-1.688;2022-08-01T15:36:00;1.85;;;1.00;;
28170;SDS011;15458;53.346;-1.688;2022-08-01T15:38:30;3.50;;;0.93;;
28170;SDS011;15458;53.346;-1.688;2022-08-01T15:40:56;2.05;;;1.10;;
28170;SDS011;15458;53.346;-1.688;2022-08-01T15:43:27;1.13;;;0.90;;
28170;SDS011;15458;53.346;-1.688;2022-08-01T15:45:59;1.27;;;1.10;;
28170;SDS011;15458;53.346;-1.688;2022-08-01T15:58:51;2.25;;;0.90;;
28170;SDS011;15458;53.346;-1.688;2022-08-01T16:01:23;2.45;;;1.00;;
28170;SDS011;15458;53.346;-1.688;2022-08-01T16:04:00;1.50;;;0.98;;
28170;SDS011;15458;53.346;-1.688;2022-08-01T16:06:31;0.70;;;0.70;;
28170;SDS011;15458;53.346;-1.688;2022-08-01T16:09:02;2.33;;;0.80;;
28170;SDS011;15458;53.346;-1.688;2022-08-01T16:11:41;0.90;;;0.90;;
28170;SDS011;15458;53.346;-1.688;2022-08-01T16:14:13;1.10;;;0.90;;
28170;SDS011;15458;53.346;-1.688;2022-08-01T16:16:46;1.48;;;1.00;;
28170;SDS011;15458;53.346;-1.688;2022-08-01T16:19:21;2.38;;;0.90;;
28170;SDS011;15458;53.346;-1.688;2022-08-01T16:21:54;2.83;;;0.90;;
28170;SDS011;15458;53.346;-1.688;2022-08-01T16:24:38;1.60;;;1.00;;
28170;SDS011;15458;53.346;-1.688;2022-08-01T16:27:16;4.30;;;1.00;;
28170;SDS011;15458;53.346;-1.688;2022-08-01T16:32:46;6.38;;;1.10;;
28170;SDS011;15458;53.346;-1.688;2022-08-01T16:35:19;3.25;;;1.02;;
28170;SDS011;15458;53.346;-1.688;2022-08-01T16:37:57;2.65;;;1.13;;
28170;SDS011;15458;53.346;-1.688;2022-08-01T16:40:35;1.08;;;0.82;;
28170;SDS011;15458;53.346;-1.688;2022-08-01T16:43:17;3.92;;;0.90;;
28170;SDS011;15458;53.346;-1.688;2022-08-01T16:45:54;1.38;;;0.98;;
28170;SDS011;15458;53.346;-1.688;2022-08-01T16:48:56;2.03;;;0.90;;
28170;SDS011;15458;53.346;-1.688;2022-08-01T16:51:31;1.58;;;1.05;;
28170;SDS011;15458;53.346;-1.688;2022-08-01T16:54:00;2.08;;;1.25;;
28170;SDS011;15458;53.346;-1.688;2022-08-01T16:56:40;2.97;;;1.40;;
28170;SDS011;15458;53.346;-1.688;2022-08-01T16:59:14;2.40;;;1.00;;
28170;SDS011;15458;53.346;-1.688;2022-08-01T17:01:55;4.53;;;0.93;;
28170;SDS011;15458;53.346;-1.688;2022-08-01T17:04:31;2.38;;;0.98;;
28170;SDS011;15458;53.346;-1.688;2022-08-01T17:07:05;4.55;;;1.83;;
28170;SDS011;15458;53.346;-1.688;2022-08-01T17:10:05;2.95;;;1.02;;